createdAt,value
2022-09-06T00:02:05.090Z,101779.72
2022-09-06T00:04:32.379Z,101784.56
2022-09-06T00:06:59.732Z,101785.38
2022-09-06T00:09:27.037Z,101786.19
2022-09-06T00:11:54.271Z,101779.97
2022-09-06T00:14:21.566Z,101786.19
2022-09-06T00:16:48.819Z,101789.97
2022-09-06T00:19:17.494Z,101791.03
2022-09-06T00:21:44.762Z,101787.19
2022-09-06T00:24:12.221Z,101782.31
2022-09-06T00:26:39.572Z,101772.56
2022-09-06T00:29:06.871Z,101771.16
2022-09-06T00:31:35.595Z,101774.13
2022-09-06T00:34:03.057Z,101781.66
2022-09-06T00:36:31.733Z,101785.13
2022-09-06T00:38:59.017Z,101777.78
2022-09-06T00:41:26.370Z,101777.44
2022-09-06T00:43:54.643Z,101774.41
2022-09-06T00:46:25.314Z,101776.00
2022-09-06T00:49:03.290Z,101769.97
2022-09-06T00:51:34.799Z,101772.09
2022-09-06T00:54:03.953Z,101772.28
2022-09-06T00:56:34.986Z,101771.13
2022-09-06T00:59:02.467Z,101771.31
2022-09-06T01:01:29.919Z,101778.03
2022-09-06T01:03:57.469Z,101763.72
2022-09-06T01:06:36.621Z,101756.16
2022-09-06T01:09:21.394Z,101760.78
2022-09-06T01:12:08.521Z,101756.28
2022-09-06T01:14:55.927Z,101747.00
2022-09-06T01:17:41.634Z,101752.06
2022-09-06T01:20:41.870Z,101751.16
2022-09-06T01:23:55.566Z,101749.47
2022-09-06T01:26:56.534Z,101759.09
2022-09-06T01:29:33.911Z,101748.88
2022-09-06T01:32:14.953Z,101742.13
2022-09-06T01:34:50.793Z,101740.47
2022-09-06T01:37:20.347Z,101732.66
2022-09-06T01:39:47.932Z,101744.22
2022-09-06T01:42:22.550Z,101754.69
2022-09-06T01:44:56.252Z,101750.59
2022-09-06T01:47:39.877Z,101751.91
2022-09-06T01:50:35.556Z,101753.47
2022-09-06T01:53:22.502Z,101749.13
2022-09-06T01:56:00.393Z,101741.28
2022-09-06T01:59:01.938Z,101745.78
2022-09-06T02:01:39.106Z,101743.91
2022-09-06T02:04:19.580Z,101742.03
2022-09-06T02:06:54.726Z,101735.09
2022-09-06T02:09:28.687Z,101738.34
2022-09-06T02:12:00.452Z,101729.22
2022-09-06T02:14:33.976Z,101731.34
2022-09-06T02:17:05.811Z,101722.09
2022-09-06T02:19:39.727Z,101722.22
2022-09-06T02:22:12.530Z,101724.09
2022-09-06T02:24:44.442Z,101721.66
2022-09-06T02:27:13.449Z,101728.91
2022-09-06T02:29:41.469Z,101717.88
2022-09-06T02:32:17.977Z,101728.34
2022-09-06T02:34:46.274Z,101723.53
2022-09-06T02:37:17.574Z,101724.09
2022-09-06T02:39:45.239Z,101716.59
2022-09-06T02:42:15.563Z,101714.97
2022-09-06T02:44:43.028Z,101721.41
2022-09-06T02:47:11.765Z,101723.88
2022-09-06T02:49:39.229Z,101711.44
2022-09-06T02:52:06.544Z,101717.41
2022-09-06T02:54:33.798Z,101720.34
2022-09-06T02:57:01.077Z,101717.09
2022-09-06T02:59:28.354Z,101709.59
2022-09-06T03:01:55.704Z,101704.19
2022-09-06T03:04:24.611Z,101702.94
2022-09-06T03:06:51.926Z,101702.06
2022-09-06T03:09:19.214Z,101705.38
2022-09-06T03:11:46.478Z,101711.56
2022-09-06T03:14:16.203Z,101701.63
2022-09-06T03:16:45.389Z,101703.75
2022-09-06T03:19:12.781Z,101692.97
2022-09-06T03:21:41.404Z,101695.84
2022-09-06T03:24:08.700Z,101693.44
2022-09-06T03:26:35.930Z,101687.47
2022-09-06T03:29:03.227Z,101681.47
2022-09-06T03:31:30.485Z,101674.75
2022-09-06T03:33:57.875Z,101672.75
2022-09-06T03:36:25.126Z,101668.91
2022-09-06T03:38:54.150Z,101667.78
2022-09-06T03:41:21.561Z,101669.91
2022-09-06T03:43:48.810Z,101668.28
2022-09-06T03:46:16.132Z,101668.28
2022-09-06T03:48:43.432Z,101677.06
2022-09-06T03:51:10.651Z,101678.94
2022-09-06T03:53:37.968Z,101669.25
2022-09-06T03:56:06.982Z,101676.75
2022-09-06T03:58:34.292Z,101674.63
2022-09-06T04:01:05.550Z,101681.41
2022-09-06T04:03:33.967Z,101683.28
2022-09-06T04:06:01.900Z,101687.03
2022-09-06T04:08:29.667Z,101685.16
2022-09-06T04:10:58.464Z,101682.47
2022-09-06T04:13:28.992Z,101674.94
2022-09-06T04:15:56.851Z,101683.84
2022-09-06T04:18:24.405Z,101683.03
2022-09-06T04:20:55.911Z,101684.91
2022-09-06T04:23:25.440Z,101672.50
2022-09-06T04:25:55.236Z,101674.63
2022-09-06T04:28:23.638Z,101675.13
2022-09-06T04:30:55.331Z,101670.94
2022-09-06T04:33:26.745Z,101666.84
2022-09-06T04:35:54.899Z,101677.06
2022-09-06T04:38:22.533Z,101680.78
2022-09-06T04:40:50.142Z,101679.75
2022-09-06T04:43:17.792Z,101673.78
2022-09-06T04:45:45.697Z,101672.16
2022-09-06T04:48:14.701Z,101670.03
2022-09-06T04:50:42.647Z,101683.00
2022-09-06T04:53:11.111Z,101671.09
2022-09-06T04:55:38.756Z,101665.94
2022-09-06T04:58:06.614Z,101668.88
2022-09-06T05:00:36.057Z,101662.38
2022-09-06T05:03:03.318Z,101671.47
2022-09-06T05:05:31.949Z,101659.56
2022-09-06T05:07:59.208Z,101663.31
2022-09-06T05:10:26.640Z,101664.13
2022-09-06T05:12:55.032Z,101672.47
2022-09-06T05:15:23.222Z,101669.09
2022-09-06T05:17:50.555Z,101666.03
2022-09-06T05:20:18.692Z,101675.97
2022-09-06T05:22:54.377Z,101668.41
2022-09-06T05:25:21.721Z,101668.97
2022-09-06T05:27:49.116Z,101654.94
2022-09-06T05:30:18.097Z,101656.56
2022-09-06T05:32:45.623Z,101662.75
2022-09-06T05:35:13.032Z,101665.19
2022-09-06T05:37:40.512Z,101667.56
2022-09-06T05:40:10.741Z,101673.53
2022-09-06T05:42:38.348Z,101675.97
2022-09-06T05:45:06.953Z,101683.00
2022-09-06T05:47:35.488Z,101690.03
2022-09-06T05:50:03.838Z,101705.22
2022-09-06T05:52:31.178Z,101725.44
2022-09-06T05:54:58.471Z,101744.53
2022-09-06T05:57:27.400Z,101743.63
2022-09-06T05:59:54.653Z,101739.97
2022-09-06T06:02:22.959Z,101729.69
2022-09-06T06:04:52.114Z,101723.25
2022-09-06T06:07:19.403Z,101713.63
2022-09-06T06:09:46.751Z,101693.75
2022-09-06T06:12:14.077Z,101691.66
2022-09-06T06:14:42.772Z,101692.25
2022-09-06T06:17:10.127Z,101686.84
2022-09-06T06:19:37.549Z,101680.44
2022-09-06T06:22:05.067Z,101671.28
2022-09-06T06:24:32.370Z,101664.28
2022-09-06T06:26:59.692Z,101661.03
2022-09-06T06:29:26.999Z,101662.91
2022-09-06T06:31:56.130Z,101667.22
2022-09-06T06:34:23.468Z,101654.22
2022-09-06T06:36:50.701Z,101647.56
2022-09-06T06:39:17.971Z,101650.25
2022-09-06T06:41:45.506Z,101651.88
2022-09-06T06:44:12.803Z,101660.53
2022-09-06T06:46:41.612Z,101657.34
2022-09-06T06:49:10.710Z,101670.34
2022-09-06T06:51:38.143Z,101688.59
2022-09-06T06:54:06.007Z,101692.69
2022-09-06T06:56:36.715Z,101698.28
2022-09-06T06:59:07.025Z,101703.69
2022-09-06T07:01:36.382Z,101698.06
2022-09-06T07:04:05.148Z,101702.47
2022-09-06T07:12:24.630Z,101726.84
2022-09-06T07:14:52.423Z,101732.06
2022-09-06T07:17:19.849Z,101728.16
2022-09-06T07:22:36.479Z,101726.22
2022-09-06T07:25:05.409Z,101719.91
2022-09-06T07:27:48.875Z,101718.09
2022-09-06T07:30:17.456Z,101721.13
2022-09-06T07:32:44.689Z,101718.53
2022-09-06T07:35:13.944Z,101716.97
2022-09-06T07:37:42.837Z,101719.75
2022-09-06T07:40:11.677Z,101733.22
2022-09-06T07:42:40.946Z,101737.53
2022-09-06T07:45:09.734Z,101734.59
2022-09-06T07:53:16.675Z,101734.09
2022-09-06T07:55:47.047Z,101722.19
2022-09-06T07:58:14.372Z,101732.19
2022-09-06T08:00:41.803Z,101727.88
2022-09-06T08:03:10.244Z,101726.09
2022-09-06T08:11:14.209Z,101742.25
2022-09-06T08:13:42.353Z,101739.91
2022-09-06T08:16:11.967Z,101742.59
2022-09-06T08:18:39.522Z,101736.38
2022-09-06T08:21:12.199Z,101730.53
2022-09-06T08:23:45.949Z,101728.06
2022-09-06T08:26:14.052Z,101727.81
2022-09-06T08:28:41.814Z,101731.09
2022-09-06T08:31:11.779Z,101731.16
2022-09-06T08:33:40.973Z,101735.06
2022-09-06T08:36:09.538Z,101744.28
2022-09-06T08:38:37.675Z,101738.34
2022-09-06T08:41:21.448Z,101737.22
2022-09-06T08:46:54.328Z,101721.59
2022-09-06T08:49:22.050Z,101722.16
2022-09-06T08:52:10.680Z,101716.78
2022-09-06T08:54:45.950Z,101718.41
2022-09-06T08:57:34.955Z,101708.13
2022-09-06T09:00:11.078Z,101709.78
2022-09-06T09:02:45.852Z,101705.25
2022-09-06T09:05:27.565Z,101691.59
2022-09-06T09:08:13.522Z,101689.78
2022-09-06T09:10:46.161Z,101688.47
2022-09-06T09:13:25.659Z,101678.03
2022-09-06T09:15:54.134Z,101684.78
2022-09-06T09:18:28.138Z,101688.00
2022-09-06T09:20:56.100Z,101684.22
2022-09-06T09:23:23.398Z,101693.38
2022-09-06T09:25:55.501Z,101701.47
2022-09-06T09:28:24.916Z,101699.81
2022-09-06T09:30:55.766Z,101696.06
2022-09-06T09:33:30.419Z,101696.31
2022-09-06T09:36:01.242Z,101695.50
2022-09-06T09:38:33.014Z,101695.50
2022-09-06T09:41:05.255Z,101695.50
2022-09-06T09:43:37.831Z,101688.97
2022-09-06T09:46:27.838Z,101682.16
2022-09-06T09:49:05.667Z,101668.59
2022-09-06T09:51:36.660Z,101674.22
2022-09-06T09:54:06.899Z,101670.72
2022-09-06T09:56:43.752Z,101671.50
2022-09-06T09:59:29.217Z,101671.50
2022-09-06T10:02:01.456Z,101673.97
2022-09-06T10:04:45.342Z,101675.78
2022-09-06T10:07:16.232Z,101671.41
2022-09-06T10:09:47.239Z,101673.50
2022-09-06T10:12:19.810Z,101669.25
2022-09-06T10:14:49.800Z,101668.06
2022-09-06T10:17:30.433Z,101664.47
2022-09-06T10:20:03.569Z,101654.53
2022-09-06T10:22:33.714Z,101670.81
2022-09-06T10:25:39.647Z,101666.97
2022-09-06T10:28:33.418Z,101672.97
2022-09-06T10:31:31.478Z,101671.09
2022-09-06T10:34:40.849Z,101675.88
2022-09-06T10:37:26.575Z,101677.19
2022-09-06T10:40:02.790Z,101689.59
2022-09-06T10:42:39.193Z,101686.34
2022-09-06T10:45:44.727Z,101686.19
2022-09-06T10:48:24.231Z,101681.31
2022-09-06T10:50:58.108Z,101686.72
2022-09-06T10:53:49.008Z,101692.59
2022-09-06T10:56:24.017Z,101693.41
2022-09-06T11:02:00.375Z,101694.16
2022-09-06T11:07:30.021Z,101686.66
2022-09-06T11:10:03.059Z,101684.19
2022-09-06T11:12:40.235Z,101678.25
2022-09-06T11:15:13.220Z,101671.31
2022-09-06T11:17:51.285Z,101685.34
2022-09-06T11:20:32.005Z,101682.75
2022-09-06T11:23:48.554Z,101678.25
2022-09-06T11:26:45.752Z,101677.75
2022-09-06T11:29:22.725Z,101680.03
2022-09-06T11:34:51.825Z,101679.88
2022-09-06T11:37:30.698Z,101675.31
2022-09-06T11:40:32.121Z,101673.84
2022-09-06T11:43:42.731Z,101678.56
2022-09-06T11:46:58.923Z,101667.59
2022-09-06T11:49:37.333Z,101673.41
2022-09-06T11:53:03.009Z,101679.81
2022-09-06T11:55:38.442Z,101682.50
2022-09-06T11:58:19.181Z,101674.06
2022-09-06T12:01:25.521Z,101675.94
2022-09-06T12:04:07.877Z,101676.13
2022-09-06T12:06:40.778Z,101684.38
2022-09-06T12:09:29.399Z,101680.41
2022-09-06T12:11:59.426Z,101675.66
2022-09-06T12:14:40.321Z,101674.41
2022-09-06T12:17:47.709Z,101667.44
2022-09-06T12:21:01.324Z,101674.00
2022-09-06T12:23:42.599Z,101672.16
2022-09-06T12:26:11.197Z,101670.84
2022-09-06T12:28:49.742Z,101658.69
2022-09-06T12:31:29.403Z,101656.84
2022-09-06T12:33:58.475Z,101654.72
2022-09-06T12:36:31.059Z,101647.22
2022-09-06T12:39:02.376Z,101654.91
2022-09-06T12:41:40.420Z,101647.91
2022-09-06T12:44:16.235Z,101645.78
2022-09-06T12:46:47.880Z,101639.81
2022-09-06T12:49:23.333Z,101633.38
2022-09-06T12:51:51.073Z,101633.41
2022-09-06T12:54:22.491Z,101632.03
2022-09-06T12:56:50.610Z,101634.50
2022-09-06T12:59:22.048Z,101634.22
2022-09-06T13:02:00.914Z,101634.75
2022-09-06T13:04:37.729Z,101628.81
2022-09-06T13:07:09.316Z,101624.19
2022-09-06T13:09:40.536Z,101629.09
2022-09-06T13:12:37.439Z,101621.50
2022-09-06T13:15:13.849Z,101617.97
2022-09-06T13:17:41.491Z,101605.81
2022-09-06T13:20:22.012Z,101597.41
2022-09-06T13:22:52.190Z,101602.53
2022-09-06T13:25:26.211Z,101599.81
2022-09-06T13:27:58.436Z,101597.66
2022-09-06T13:30:41.959Z,101588.44
2022-09-06T13:33:25.471Z,101592.78
2022-09-06T13:36:08.419Z,101594.13
2022-09-06T13:38:41.924Z,101595.22
2022-09-06T13:41:41.155Z,101590.59
2022-09-06T13:44:27.450Z,101593.31
2022-09-06T13:46:56.502Z,101598.13
2022-09-06T13:49:24.073Z,101591.34
2022-09-06T13:51:53.673Z,101597.56
2022-09-06T13:54:22.910Z,101580.47
2022-09-06T13:56:50.755Z,101577.78
2022-09-06T13:59:19.076Z,101584.06
2022-09-06T14:01:49.842Z,101578.63
2022-09-06T14:04:21.544Z,101577.84
2022-09-06T14:06:49.702Z,101575.41
2022-09-06T14:09:17.078Z,101575.91
2022-09-06T14:11:48.197Z,101575.22
2022-09-06T14:14:17.757Z,101578.66
2022-09-06T14:16:47.578Z,101582.22
2022-09-06T14:19:15.970Z,101577.38
2022-09-06T14:21:44.711Z,101566.03
2022-09-06T14:24:12.369Z,101572.84
2022-09-06T14:26:39.877Z,101568.81
2022-09-06T14:29:08.236Z,101567.25
2022-09-06T14:31:35.648Z,101561.31
2022-09-06T14:34:04.188Z,101560.50
2022-09-06T14:36:34.723Z,101557.56
2022-09-06T14:39:04.492Z,101561.63
2022-09-06T14:41:32.660Z,101554.28
2022-09-06T14:44:00.578Z,101546.16
2022-09-06T14:46:29.789Z,101549.97
2022-09-06T14:48:59.469Z,101542.91
2022-09-06T14:51:27.263Z,101536.97
2022-09-06T14:53:57.517Z,101536.69
2022-09-06T14:56:27.091Z,101542.09
2022-09-06T14:58:57.465Z,101539.69
2022-09-06T15:01:28.618Z,101533.19
2022-09-06T15:03:59.097Z,101525.31
2022-09-06T15:06:27.885Z,101521.25
2022-09-06T15:08:59.304Z,101507.13
2022-09-06T15:11:34.647Z,101514.09
2022-09-06T15:14:04.255Z,101516.94
2022-09-06T15:16:32.757Z,101520.69
2022-09-06T15:19:02.293Z,101522.00
2022-09-06T15:21:31.744Z,101527.88
2022-09-06T15:24:00.318Z,101521.59
2022-09-06T15:26:30.580Z,101523.81
2022-09-06T15:28:58.012Z,101512.78
2022-09-06T15:31:25.558Z,101513.66
2022-09-06T15:33:54.053Z,101512.34
2022-09-06T15:36:22.508Z,101509.31
2022-09-06T15:38:52.403Z,101500.97
2022-09-06T15:41:24.327Z,101505.91
2022-09-06T15:43:56.708Z,101505.41
2022-09-06T15:46:43.901Z,101504.13
2022-09-06T15:49:15.633Z,101503.84
2022-09-06T15:51:43.386Z,101496.84
2022-09-06T15:54:12.946Z,101501.13
2022-09-06T15:56:41.024Z,101504.84
2022-09-06T15:59:10.823Z,101493.47
2022-09-06T16:01:38.992Z,101492.94
2022-09-06T16:04:07.218Z,101478.91
2022-09-06T16:06:39.577Z,101472.16
2022-09-06T16:09:10.942Z,101471.63
2022-09-06T16:11:38.814Z,101465.97
2022-09-06T16:14:10.090Z,101471.13
2022-09-06T16:16:38.324Z,101480.09
2022-09-06T16:19:06.488Z,101473.09
2022-09-06T16:21:37.956Z,101469.31
2022-09-06T16:24:08.216Z,101473.09
2022-09-06T16:26:39.201Z,101471.75
2022-09-06T16:29:10.331Z,101466.59
2022-09-06T16:31:40.520Z,101469.31
2022-09-06T16:34:08.941Z,101460.63
2022-09-06T16:36:37.274Z,101450.34
2022-09-06T16:39:05.517Z,101459.00
2022-09-06T16:41:39.420Z,101453.59
2022-09-06T16:44:07.516Z,101446.00
2022-09-06T16:46:36.618Z,101457.66
2022-09-06T16:49:04.724Z,101451.41
2022-09-06T16:51:32.547Z,101458.47
2022-09-06T16:54:01.574Z,101453.06
2022-09-06T16:56:33.534Z,101459.03
2022-09-06T16:59:04.550Z,101462.78
2022-09-06T17:01:33.586Z,101457.66
2022-09-06T17:04:03.956Z,101451.97
2022-09-06T17:06:42.070Z,101458.72
2022-09-06T17:09:09.721Z,101451.41
2022-09-06T17:11:38.776Z,101457.34
2022-09-06T17:14:06.683Z,101452.75
2022-09-06T17:16:52.899Z,101443.50
2022-09-06T17:19:22.100Z,101444.34
2022-09-06T17:21:49.674Z,101441.66
2022-09-06T17:24:17.115Z,101443.31
2022-09-06T17:26:44.534Z,101443.31
2022-09-06T17:29:11.964Z,101445.47
2022-09-06T17:31:39.531Z,101449.25
2022-09-06T17:34:07.760Z,101445.22
2022-09-06T17:36:37.117Z,101450.34
2022-09-06T17:39:08.241Z,101461.72
2022-09-06T17:41:38.926Z,101460.03
2022-09-06T17:44:08.136Z,101458.94
2022-09-06T17:46:35.542Z,101465.13
2022-09-06T17:49:09.417Z,101466.97
2022-09-06T17:51:39.191Z,101468.88
2022-09-06T17:54:08.532Z,101479.94
2022-09-06T17:56:37.104Z,101476.41
2022-09-06T17:59:08.250Z,101478.25
2022-09-06T18:01:38.542Z,101481.75
2022-09-06T18:04:14.437Z,101483.56
2022-09-06T18:06:47.527Z,101487.88
2022-09-06T18:09:17.816Z,101485.69
2022-09-06T18:11:47.035Z,101489.16
2022-09-06T18:14:17.662Z,101488.34
2022-09-06T18:16:47.227Z,101491.56
2022-09-06T18:19:15.491Z,101485.06
2022-09-06T18:21:43.218Z,101481.22
2022-09-06T18:24:15.979Z,101483.94
2022-09-06T18:26:44.576Z,101481.72
2022-09-06T18:29:16.733Z,101480.03
2022-09-06T18:31:44.851Z,101481.91
2022-09-06T18:34:12.588Z,101479.97
2022-09-06T18:36:40.445Z,101479.66
2022-09-06T18:39:08.636Z,101479.34
2022-09-06T18:41:55.808Z,101480.38
2022-09-06T18:44:23.760Z,101481.94
2022-09-06T18:46:55.708Z,101476.25
2022-09-06T18:49:23.182Z,101479.69
2022-09-06T18:51:50.858Z,101483.97
2022-09-06T18:54:18.564Z,101488.28
2022-09-06T18:56:49.967Z,101478.50
2022-09-06T18:59:18.054Z,101490.59
2022-09-06T19:01:45.695Z,101487.06
2022-09-06T19:04:15.087Z,101492.41
2022-09-06T19:06:44.347Z,101492.34
2022-09-06T19:09:14.990Z,101491.25
2022-09-06T19:11:45.466Z,101490.66
2022-09-06T19:14:14.406Z,101499.25
2022-09-06T19:16:42.216Z,101491.66
2022-09-06T19:19:11.718Z,101492.75
2022-09-06T19:21:42.037Z,101485.16
2022-09-06T19:24:12.485Z,101482.13
2022-09-06T19:26:44.122Z,101486.16
2022-09-06T19:29:17.123Z,101478.59
2022-09-06T19:31:46.967Z,101479.91
2022-09-06T19:34:15.580Z,101483.38
2022-09-06T19:36:44.605Z,101470.94
2022-09-06T19:39:15.581Z,101473.09
2022-09-06T19:41:45.164Z,101469.84
2022-09-06T19:44:16.058Z,101470.31
2022-09-06T19:46:46.148Z,101469.22
2022-09-06T19:49:15.393Z,101472.97
2022-09-06T19:51:45.243Z,101471.31
2022-09-06T19:54:12.944Z,101473.72
2022-09-06T19:56:44.347Z,101466.94
2022-09-06T19:59:14.782Z,101463.69
2022-09-06T20:01:45.383Z,101459.91
2022-09-06T20:04:14.372Z,101455.88
2022-09-06T20:06:42.270Z,101459.63
2022-09-06T20:09:11.203Z,101460.13
2022-09-06T20:11:41.739Z,101454.44
2022-09-06T20:14:10.355Z,101454.94
2022-09-06T20:16:42.210Z,101447.09
2022-09-06T20:19:12.251Z,101452.16
2022-09-06T20:21:40.014Z,101446.44
2022-09-06T20:24:08.010Z,101453.16
2022-09-06T20:26:35.752Z,101448.25
2022-09-06T20:29:05.052Z,101445.81
2022-09-06T20:31:34.562Z,101442.31
2022-09-06T20:34:05.564Z,101448.75
2022-09-06T20:36:32.983Z,101443.38
2022-09-06T20:39:00.520Z,101440.94
2022-09-06T20:41:28.015Z,101425.00
2022-09-06T20:43:57.502Z,101420.44
2022-09-06T20:46:27.629Z,101416.38
2022-09-06T20:48:59.679Z,101414.19
2022-09-06T20:51:28.406Z,101410.91
2022-09-06T20:53:58.042Z,101404.97
2022-09-06T20:56:27.997Z,101399.28
2022-09-06T20:58:58.929Z,101400.03
2022-09-06T21:01:29.538Z,101393.00
2022-09-06T21:03:59.825Z,101386.50
2022-09-06T21:06:31.312Z,101387.56
2022-09-06T21:08:58.603Z,101388.06
2022-09-06T21:11:26.325Z,101380.25
2022-09-06T21:13:56.412Z,101380.25
2022-09-06T21:16:27.548Z,101379.69
2022-09-06T21:18:57.278Z,101372.34
2022-09-06T21:21:25.896Z,101374.47
2022-09-06T21:23:55.028Z,101374.97
2022-09-06T21:26:23.209Z,101369.03
2022-09-06T21:28:50.907Z,101368.47
2022-09-06T21:31:24.134Z,101365.22
2022-09-06T21:33:54.098Z,101361.94
2022-09-06T21:36:24.517Z,101359.75
2022-09-06T21:38:56.271Z,101367.16
2022-09-06T21:41:24.004Z,101363.31
2022-09-06T21:43:53.672Z,101367.31
2022-09-06T21:46:26.011Z,101365.94
2022-09-06T21:48:56.354Z,101370.19
2022-09-06T21:51:27.295Z,101376.66
2022-09-06T21:54:03.330Z,101373.38
2022-09-06T21:56:31.829Z,101372.59
2022-09-06T21:58:59.774Z,101377.13
2022-09-06T22:01:31.956Z,101377.13
2022-09-06T22:04:00.254Z,101381.44
2022-09-06T22:06:30.704Z,101379.81
2022-09-06T22:09:03.874Z,101374.94
2022-09-06T22:11:34.065Z,101370.03
2022-09-06T22:14:04.827Z,101361.66
2022-09-06T22:16:35.086Z,101355.94
2022-09-06T22:19:04.757Z,101357.25
2022-09-06T22:21:33.682Z,101365.56
2022-09-06T22:24:05.126Z,101367.69
2022-09-06T22:26:35.383Z,101371.94
2022-09-06T22:29:06.914Z,101363.81
2022-09-06T22:31:36.167Z,101364.28
2022-09-06T22:38:09.751Z,101364.28
2022-09-06T22:41:06.739Z,101358.00
2022-09-06T22:52:16.793Z,101343.06
2022-09-06T22:54:44.142Z,101339.66
2022-09-06T22:57:13.033Z,101332.16
2022-09-06T22:59:40.454Z,101320.94
2022-09-06T23:02:07.809Z,101320.94
2022-09-06T23:04:35.169Z,101320.94
2022-09-06T23:07:02.674Z,101332.16
2022-09-06T23:09:30.007Z,101328.91
2022-09-06T23:11:57.352Z,101326.44
2022-09-06T23:14:28.130Z,101323.53
2022-09-06T23:16:55.502Z,101324.09
2022-09-06T23:19:22.813Z,101325.53
2022-09-06T23:21:50.146Z,101318.25
2022-09-06T23:24:17.491Z,101315.56
2022-09-06T23:26:44.915Z,101320.94
2022-09-06T23:29:12.830Z,101311.84
2022-09-06T23:31:42.502Z,101309.41
2022-09-06T23:34:10.069Z,101304.81
2022-09-06T23:36:37.517Z,101306.94
2022-09-06T23:39:07.115Z,101302.03
2022-09-06T23:41:34.981Z,101299.28
2022-09-06T23:44:03.288Z,101296.03
2022-09-06T23:46:31.799Z,101290.31
2022-09-06T23:49:01.015Z,101291.59
2022-09-06T23:51:28.407Z,101292.09
2022-09-06T23:53:55.874Z,101285.09
2022-09-06T23:56:23.197Z,101282.16
2022-09-06T23:58:50.663Z,101286.22
